createdAt,value
2023-04-27T00:01:13.845Z,98633.48
2023-04-27T00:03:42.559Z,98627.91
2023-04-27T00:06:10.299Z,98628.56
2023-04-27T00:08:37.903Z,98630.23
2023-04-27T00:11:05.483Z,98632.25
2023-04-27T00:13:33.062Z,98627.71
2023-04-27T00:16:01.073Z,98628.27
2023-04-27T00:18:28.716Z,98624.61
2023-04-27T00:20:56.888Z,98625.36
2023-04-27T00:23:24.497Z,98624.40
2023-04-27T00:25:52.015Z,98621.96
2023-04-27T00:28:19.617Z,98622.06
2023-04-27T00:30:47.273Z,98622.69
2023-04-27T00:33:16.512Z,98621.94
2023-04-27T00:35:44.074Z,98621.70
2023-04-27T00:38:12.060Z,98622.29
2023-04-27T00:40:39.922Z,98620.85
2023-04-27T00:43:07.529Z,98622.80
2023-04-27T00:45:42.173Z,98624.40
2023-04-27T00:48:13.355Z,98627.35
2023-04-27T00:50:40.934Z,98630.12
2023-04-27T00:53:08.560Z,98628.86
2023-04-27T00:55:36.096Z,98628.42
2023-04-27T00:58:03.809Z,98630.54
2023-04-27T01:00:31.457Z,98633.30
2023-04-27T01:02:59.896Z,98631.70
2023-04-27T01:05:28.689Z,98634.30
2023-04-27T01:07:56.957Z,98633.48
2023-04-27T01:10:24.697Z,98634.36
2023-04-27T01:12:52.414Z,98635.42
2023-04-27T01:15:19.954Z,98634.30
2023-04-27T01:17:47.661Z,98631.98
2023-04-27T01:20:15.238Z,98634.20
2023-04-27T01:22:42.795Z,98632.73
2023-04-27T01:25:10.330Z,98631.91
2023-04-27T01:27:37.860Z,98630.77
2023-04-27T01:30:06.186Z,98637.67
2023-04-27T01:32:33.807Z,98632.65
2023-04-27T01:35:01.400Z,98637.37
2023-04-27T01:37:29.001Z,98637.89
2023-04-27T01:39:56.575Z,98637.23
2023-04-27T01:42:24.163Z,98639.58
2023-04-27T01:44:51.906Z,98639.77
2023-04-27T01:47:19.514Z,98642.30
2023-04-27T01:49:47.198Z,98639.27
2023-04-27T01:52:14.711Z,98642.14
2023-04-27T01:54:42.273Z,98645.85
2023-04-27T01:57:09.850Z,98646.19
2023-04-27T01:59:37.413Z,98644.68
2023-04-27T02:02:05.096Z,98645.86
2023-04-27T02:04:32.891Z,98647.55
2023-04-27T02:07:00.494Z,98651.59
2023-04-27T02:09:28.038Z,98655.29
2023-04-27T02:11:55.581Z,98653.44
2023-04-27T02:14:23.153Z,98653.77
2023-04-27T02:16:50.729Z,98654.44
2023-04-27T02:19:18.300Z,98656.28
2023-04-27T02:21:45.846Z,98656.44
2023-04-27T02:24:13.564Z,98659.29
2023-04-27T02:26:41.375Z,98655.27
2023-04-27T02:29:09.269Z,98656.59
2023-04-27T02:31:37.462Z,98652.23
2023-04-27T02:34:05.170Z,98654.41
2023-04-27T02:36:32.750Z,98649.36
2023-04-27T02:39:00.320Z,98649.19
2023-04-27T02:41:31.798Z,98649.02
2023-04-27T02:43:59.325Z,98651.20
2023-04-27T02:46:26.967Z,98651.87
2023-04-27T02:48:55.802Z,98650.52
2023-04-27T02:51:23.475Z,98649.84
2023-04-27T02:53:53.450Z,98650.00
2023-04-27T02:56:21.021Z,98651.01
2023-04-27T02:58:48.552Z,98651.34
2023-04-27T03:01:16.195Z,98650.34
2023-04-27T03:03:47.345Z,98648.80
2023-04-27T03:06:15.278Z,98652.67
2023-04-27T03:08:42.855Z,98654.34
2023-04-27T03:11:10.419Z,98654.88
2023-04-27T03:13:38.417Z,98657.89
2023-04-27T03:16:06.428Z,98659.73
2023-04-27T03:18:33.972Z,98664.27
2023-04-27T03:21:11.919Z,98663.79
2023-04-27T03:23:40.378Z,98663.10
2023-04-27T03:26:09.583Z,98664.14
2023-04-27T03:28:37.836Z,98665.98
2023-04-27T03:31:09.926Z,98664.46
2023-04-27T03:33:38.480Z,98667.48
2023-04-27T03:36:07.250Z,98667.48
2023-04-27T03:38:35.125Z,98676.22
2023-04-27T03:41:03.008Z,98681.92
2023-04-27T03:43:30.631Z,98685.77
2023-04-27T03:45:58.263Z,98687.30
2023-04-27T03:48:25.838Z,98689.81
2023-04-27T03:50:53.371Z,98690.81
2023-04-27T03:53:20.961Z,98693.66
2023-04-27T03:55:48.514Z,98693.33
2023-04-27T03:58:16.091Z,98695.84
2023-04-27T04:00:43.751Z,98696.83
2023-04-27T04:03:11.511Z,98698.67
2023-04-27T04:05:39.210Z,98699.35
2023-04-27T04:08:06.757Z,98699.69
2023-04-27T04:10:34.321Z,98705.41
2023-04-27T04:13:01.901Z,98705.59
2023-04-27T04:15:29.461Z,98709.48
2023-04-27T04:17:57.054Z,98713.70
2023-04-27T04:20:24.634Z,98716.23
2023-04-27T04:22:52.215Z,98715.59
2023-04-27T04:25:19.900Z,98711.40
2023-04-27T04:27:47.534Z,98715.62
2023-04-27T04:30:15.265Z,98718.98
2023-04-27T04:32:42.901Z,98718.48
2023-04-27T04:35:10.608Z,98717.80
2023-04-27T04:37:38.166Z,98718.63
2023-04-27T04:40:07.264Z,98717.41
2023-04-27T04:42:36.133Z,98719.40
2023-04-27T04:45:04.098Z,98725.23
2023-04-27T04:47:31.699Z,98729.73
2023-04-27T04:49:59.502Z,98732.21
2023-04-27T04:52:27.078Z,98732.84
2023-04-27T04:54:54.617Z,98733.46
2023-04-27T04:57:22.242Z,98737.65
2023-04-27T04:59:49.814Z,98741.48
2023-04-27T05:02:17.586Z,98741.55
2023-04-27T05:04:45.329Z,98740.62
2023-04-27T05:07:14.914Z,98740.00
2023-04-27T05:09:43.663Z,98742.40
2023-04-27T05:12:11.248Z,98741.89
2023-04-27T05:14:38.950Z,98745.39
2023-04-27T05:17:06.566Z,98745.52
2023-04-27T05:19:34.142Z,98750.45
2023-04-27T05:22:01.675Z,98748.30
2023-04-27T05:24:29.257Z,98754.66
2023-04-27T05:26:56.853Z,98757.17
2023-04-27T05:29:24.426Z,98757.06
2023-04-27T05:31:52.054Z,98757.73
2023-04-27T05:34:20.097Z,98762.64
2023-04-27T05:36:47.784Z,98765.19
2023-04-27T05:39:15.932Z,98765.59
2023-04-27T05:41:43.719Z,98767.86
2023-04-27T05:44:11.272Z,98769.29
2023-04-27T05:46:39.041Z,98770.17
2023-04-27T05:49:06.623Z,98772.55
2023-04-27T05:51:34.193Z,98772.33
2023-04-27T05:54:01.755Z,98772.61
2023-04-27T05:56:29.339Z,98773.54
2023-04-27T05:58:56.887Z,98780.35
2023-04-27T06:01:24.449Z,98778.18
2023-04-27T06:03:52.127Z,98780.37
2023-04-27T06:06:19.764Z,98781.23
2023-04-27T06:08:47.300Z,98784.96
2023-04-27T06:11:14.977Z,98784.27
2023-04-27T06:13:42.498Z,98781.23
2023-04-27T06:16:10.718Z,98783.60
2023-04-27T06:18:38.329Z,98786.94
2023-04-27T06:21:05.953Z,98784.35
2023-04-27T06:23:33.546Z,98781.25
2023-04-27T06:26:01.153Z,98785.27
2023-04-27T06:28:28.699Z,98785.60
2023-04-27T06:30:56.259Z,98790.80
2023-04-27T06:33:23.858Z,98792.45
2023-04-27T06:35:51.491Z,98793.36
2023-04-27T06:38:19.079Z,98796.20
2023-04-27T06:40:50.756Z,98791.61
2023-04-27T06:43:18.571Z,98795.30
2023-04-27T06:45:46.175Z,98795.44
2023-04-27T06:48:13.976Z,98796.17
2023-04-27T06:50:41.556Z,98794.34
2023-04-27T06:53:09.724Z,98791.66
2023-04-27T06:55:37.375Z,98787.30
2023-04-27T06:58:05.086Z,98791.09
2023-04-27T07:00:32.677Z,98791.39
2023-04-27T07:03:00.339Z,98790.55
2023-04-27T07:05:27.947Z,98797.55
2023-04-27T07:07:55.508Z,98795.52
2023-04-27T07:10:23.026Z,98796.06
2023-04-27T07:12:50.633Z,98797.45
2023-04-27T07:15:18.301Z,98794.58
2023-04-27T07:17:45.886Z,98796.60
2023-04-27T07:20:13.654Z,98797.35
2023-04-27T07:22:41.189Z,98795.59
2023-04-27T07:25:09.174Z,98795.90
2023-04-27T07:27:36.834Z,98798.86
2023-04-27T07:30:05.504Z,98798.60
2023-04-27T07:32:33.103Z,98797.69
2023-04-27T07:35:00.656Z,98797.61
2023-04-27T07:37:28.261Z,98795.47
2023-04-27T07:39:55.855Z,98789.52
2023-04-27T07:42:23.601Z,98789.20
2023-04-27T07:44:52.030Z,98791.52
2023-04-27T07:47:19.871Z,98789.85
2023-04-27T07:49:47.398Z,98791.65
2023-04-27T07:52:15.076Z,98789.25
2023-04-27T07:54:42.655Z,98787.83
2023-04-27T07:57:11.298Z,98789.19
2023-04-27T07:59:39.708Z,98786.23
2023-04-27T08:02:19.214Z,98790.02
2023-04-27T08:04:48.886Z,98792.63
2023-04-27T08:07:17.565Z,98792.89
2023-04-27T08:09:45.400Z,98789.14
2023-04-27T08:12:13.086Z,98794.27
2023-04-27T08:14:40.634Z,98792.83
2023-04-27T08:17:08.177Z,98791.98
2023-04-27T08:19:35.781Z,98796.61
2023-04-27T08:22:03.481Z,98793.23
2023-04-27T08:24:31.004Z,98794.73
2023-04-27T08:26:58.558Z,98794.99
2023-04-27T08:29:28.522Z,98795.65
2023-04-27T08:31:59.925Z,98792.33
2023-04-27T08:34:28.725Z,98794.67
2023-04-27T08:36:56.563Z,98793.15
2023-04-27T08:39:24.739Z,98795.96
2023-04-27T08:41:52.572Z,98798.77
2023-04-27T08:44:20.249Z,98802.34
2023-04-27T08:46:47.991Z,98816.70
2023-04-27T08:49:17.070Z,98812.36
2023-04-27T08:51:45.116Z,98812.48
2023-04-27T08:54:12.683Z,98810.34
2023-04-27T08:56:40.214Z,98807.44
2023-04-27T08:59:14.499Z,98805.67
2023-04-27T09:01:49.784Z,98803.52
2023-04-27T09:04:17.731Z,98801.38
2023-04-27T09:06:45.762Z,98802.73
2023-04-27T09:09:22.335Z,98800.77
2023-04-27T09:11:49.892Z,98795.05
2023-04-27T09:14:19.864Z,98791.67
2023-04-27T09:16:58.156Z,98792.64
2023-04-27T09:19:27.531Z,98791.44
2023-04-27T09:22:04.976Z,98794.26
2023-04-27T09:24:32.563Z,98793.60
2023-04-27T09:27:01.105Z,98799.71
2023-04-27T09:29:36.744Z,98801.34
2023-04-27T09:32:19.842Z,98798.44
2023-04-27T09:34:47.498Z,98796.62
2023-04-27T09:37:15.628Z,98801.65
2023-04-27T09:39:43.490Z,98797.73
2023-04-27T09:42:12.448Z,98795.73
2023-04-27T09:44:40.004Z,98794.58
2023-04-27T09:47:07.906Z,98796.31
2023-04-27T09:49:35.459Z,98794.38
2023-04-27T09:52:03.038Z,98794.21
2023-04-27T09:54:33.704Z,98786.19
2023-04-27T09:57:16.228Z,98787.48
2023-04-27T10:00:02.689Z,98788.70
2023-04-27T10:02:52.716Z,98787.77
2023-04-27T10:05:42.684Z,98786.22
2023-04-27T10:08:10.968Z,98784.56
2023-04-27T10:10:48.895Z,98784.35
2023-04-27T10:13:26.559Z,98788.56
2023-04-27T10:15:54.799Z,98796.02
2023-04-27T10:18:31.946Z,98797.40
2023-04-27T10:21:11.823Z,98798.92
2023-04-27T10:23:47.582Z,98799.00
2023-04-27T10:26:25.774Z,98798.81
2023-04-27T10:29:06.388Z,98797.81
2023-04-27T10:31:34.969Z,98796.45
2023-04-27T10:34:10.163Z,98798.09
2023-04-27T10:36:39.066Z,98800.06
2023-04-27T10:39:24.032Z,98794.41
2023-04-27T10:41:57.535Z,98792.76
2023-04-27T10:44:27.395Z,98797.80
2023-04-27T10:46:56.814Z,98801.48
2023-04-27T10:49:24.422Z,98804.02
2023-04-27T10:51:52.007Z,98799.30
2023-04-27T10:54:19.600Z,98799.88
2023-04-27T10:56:47.193Z,98800.70
2023-04-27T10:59:15.147Z,98799.73
2023-04-27T11:01:42.967Z,98802.52
2023-04-27T11:04:10.609Z,98799.33
2023-04-27T11:06:43.443Z,98801.33
2023-04-27T11:09:11.172Z,98803.52
2023-04-27T11:11:38.773Z,98804.35
2023-04-27T11:14:06.418Z,98802.55
2023-04-27T11:16:34.225Z,98801.85
2023-04-27T11:19:05.731Z,98799.55
2023-04-27T11:21:33.344Z,98801.19
2023-04-27T11:24:08.392Z,98806.18
2023-04-27T11:26:36.086Z,98803.15
2023-04-27T11:29:08.938Z,98800.16
2023-04-27T11:31:47.319Z,98794.74
2023-04-27T11:34:19.912Z,98792.86
2023-04-27T11:37:21.528Z,98797.42
2023-04-27T11:39:49.147Z,98800.75
2023-04-27T11:42:24.919Z,98805.11
2023-04-27T11:44:57.545Z,98804.39
2023-04-27T11:47:27.175Z,98809.75
2023-04-27T11:49:56.968Z,98808.20
2023-04-27T11:52:37.742Z,98806.98
2023-04-27T11:55:06.141Z,98807.23
2023-04-27T11:57:35.441Z,98803.24
2023-04-27T12:00:05.866Z,98800.27
2023-04-27T12:02:33.633Z,98799.73
2023-04-27T12:05:01.561Z,98802.08
2023-04-27T12:07:29.595Z,98808.63
2023-04-27T12:09:58.913Z,98804.31
2023-04-27T12:12:28.207Z,98807.11
2023-04-27T12:14:55.768Z,98804.54
2023-04-27T12:17:23.416Z,98804.40
2023-04-27T12:19:51.020Z,98809.93
2023-04-27T12:22:18.578Z,98806.27
2023-04-27T12:24:46.133Z,98811.66
2023-04-27T12:27:13.892Z,98806.31
2023-04-27T12:29:41.458Z,98807.00
2023-04-27T12:32:09.027Z,98811.73
2023-04-27T12:34:39.821Z,98809.29
2023-04-27T12:37:07.409Z,98805.15
2023-04-27T12:39:34.951Z,98802.47
2023-04-27T12:42:02.792Z,98800.42
2023-04-27T12:44:30.507Z,98797.85
2023-04-27T12:46:58.088Z,98795.52
2023-04-27T12:49:25.688Z,98795.20
2023-04-27T12:51:53.582Z,98791.78
2023-04-27T12:54:21.163Z,98796.45
2023-04-27T12:56:48.802Z,98791.71
2023-04-27T12:59:16.353Z,98793.56
2023-04-27T13:01:44.014Z,98797.89
2023-04-27T13:04:19.483Z,98797.02
2023-04-27T13:06:47.745Z,98795.36
2023-04-27T13:09:15.363Z,98799.04
2023-04-27T13:11:43.019Z,98798.39
2023-04-27T13:14:10.666Z,98795.72
2023-04-27T13:16:39.900Z,98799.89
2023-04-27T13:19:07.505Z,98798.52
2023-04-27T13:21:35.146Z,98798.69
2023-04-27T13:24:02.745Z,98804.14
2023-04-27T13:26:30.416Z,98800.77
2023-04-27T13:28:58.099Z,98796.27
2023-04-27T13:31:25.734Z,98800.07
2023-04-27T13:33:53.599Z,98799.75
2023-04-27T13:36:21.150Z,98803.95
2023-04-27T13:38:48.690Z,98805.27
2023-04-27T13:41:16.393Z,98801.17
2023-04-27T13:43:43.994Z,98807.45
2023-04-27T13:46:11.583Z,98803.63
2023-04-27T13:48:39.185Z,98806.17
2023-04-27T13:51:06.764Z,98799.33
2023-04-27T13:53:34.476Z,98799.49
2023-04-27T13:56:02.170Z,98808.92
2023-04-27T13:58:29.823Z,98807.02
2023-04-27T14:00:58.192Z,98807.54
2023-04-27T14:03:25.872Z,98815.49
2023-04-27T14:05:53.608Z,98818.06
2023-04-27T14:08:21.510Z,98819.66
2023-04-27T14:10:49.185Z,98816.95
2023-04-27T14:13:18.314Z,98812.59
2023-04-27T14:15:46.240Z,98814.84
2023-04-27T14:18:14.042Z,98815.67
2023-04-27T14:20:41.844Z,98814.95
2023-04-27T14:23:10.755Z,98817.88
2023-04-27T14:25:38.333Z,98819.94
2023-04-27T14:28:06.853Z,98819.20
2023-04-27T14:30:35.446Z,98825.70
2023-04-27T14:33:03.270Z,98826.64
2023-04-27T14:35:33.773Z,98830.77
2023-04-27T14:38:01.395Z,98830.27
2023-04-27T14:40:32.303Z,98840.60
2023-04-27T14:43:00.150Z,98837.33
2023-04-27T14:45:36.677Z,98832.11
2023-04-27T14:48:07.687Z,98829.09
2023-04-27T14:50:35.362Z,98835.96
2023-04-27T14:53:02.927Z,98834.52
2023-04-27T14:55:30.562Z,98832.10
2023-04-27T14:57:58.111Z,98831.22
2023-04-27T15:00:25.785Z,98834.11
2023-04-27T15:02:53.537Z,98833.67
2023-04-27T15:05:21.519Z,98834.13
2023-04-27T15:07:49.088Z,98832.80
2023-04-27T15:10:16.808Z,98836.65
2023-04-27T15:12:44.387Z,98839.86
2023-04-27T15:15:12.316Z,98846.44
2023-04-27T15:17:39.988Z,98847.41
2023-04-27T15:20:08.055Z,98841.27
2023-04-27T15:22:35.625Z,98845.56
2023-04-27T15:25:03.376Z,98846.70
2023-04-27T15:27:31.212Z,98841.64
2023-04-27T15:29:58.842Z,98845.24
2023-04-27T15:32:26.431Z,98844.34
2023-04-27T15:34:54.051Z,98845.64
2023-04-27T15:37:21.622Z,98844.13
2023-04-27T15:39:49.152Z,98845.52
2023-04-27T15:42:16.778Z,98843.88
2023-04-27T15:44:44.329Z,98843.86
2023-04-27T15:47:14.178Z,98844.34
2023-04-27T15:49:53.657Z,98841.11
2023-04-27T15:52:25.774Z,98843.95
2023-04-27T15:54:53.362Z,98845.63
2023-04-27T15:57:20.950Z,98843.17
2023-04-27T15:59:48.519Z,98843.38
2023-04-27T16:02:16.252Z,98841.56
2023-04-27T16:04:44.316Z,98842.63
2023-04-27T16:07:11.973Z,98841.77
2023-04-27T16:09:39.587Z,98839.23
2023-04-27T16:12:07.234Z,98840.21
2023-04-27T16:14:34.802Z,98841.64
2023-04-27T16:17:02.460Z,98843.76
2023-04-27T16:19:30.249Z,98842.95
2023-04-27T16:21:57.854Z,98846.45
2023-04-27T16:24:25.549Z,98846.39
2023-04-27T16:26:53.157Z,98846.94
2023-04-27T16:29:20.726Z,98853.09
2023-04-27T16:31:53.097Z,98850.23
2023-04-27T16:34:20.832Z,98849.37
2023-04-27T16:36:48.380Z,98847.66
2023-04-27T16:39:16.266Z,98850.50
2023-04-27T16:41:44.002Z,98854.14
2023-04-27T16:44:12.829Z,98851.17
2023-04-27T16:46:40.433Z,98852.67
2023-04-27T16:49:08.044Z,98856.88
2023-04-27T16:51:35.616Z,98860.18
2023-04-27T16:54:03.254Z,98862.72
2023-04-27T16:56:34.325Z,98860.33
2023-04-27T16:59:02.337Z,98860.95
2023-04-27T17:01:30.114Z,98860.42
2023-04-27T17:03:59.475Z,98862.09
2023-04-27T17:06:27.792Z,98864.26
2023-04-27T17:08:58.811Z,98861.49
2023-04-27T17:11:26.455Z,98867.11
2023-04-27T17:13:54.169Z,98866.14
2023-04-27T17:16:22.040Z,98868.38
2023-04-27T17:18:49.725Z,98868.40
2023-04-27T17:21:17.440Z,98871.90
2023-04-27T17:23:45.169Z,98870.10
2023-04-27T17:26:13.162Z,98869.40
2023-04-27T17:28:40.693Z,98871.33
2023-04-27T17:31:08.341Z,98874.31
2023-04-27T17:33:36.306Z,98876.15
2023-04-27T17:36:04.064Z,98874.23
2023-04-27T17:38:31.606Z,98875.26
2023-04-27T17:40:59.166Z,98878.93
2023-04-27T17:43:26.764Z,98875.60
2023-04-27T17:45:54.332Z,98880.08
2023-04-27T17:48:21.924Z,98883.02
2023-04-27T17:50:49.543Z,98881.38
2023-04-27T17:53:17.124Z,98880.58
2023-04-27T17:55:44.670Z,98880.31
2023-04-27T17:58:12.227Z,98877.02
2023-04-27T18:00:41.744Z,98879.91
2023-04-27T18:03:10.082Z,98879.66
2023-04-27T18:05:37.795Z,98882.19
2023-04-27T18:08:05.461Z,98883.58
2023-04-27T18:10:33.130Z,98885.51
2023-04-27T18:13:00.730Z,98886.77
2023-04-27T18:15:28.377Z,98892.75
2023-04-27T18:17:56.170Z,98894.64
2023-04-27T18:20:24.152Z,98899.20
2023-04-27T18:22:52.670Z,98898.42
2023-04-27T18:25:20.282Z,98902.38
2023-04-27T18:27:47.858Z,98902.79
2023-04-27T18:30:15.620Z,98902.30
2023-04-27T18:32:43.231Z,98904.05
2023-04-27T18:35:10.835Z,98899.14
2023-04-27T18:37:38.503Z,98903.40
2023-04-27T18:40:06.935Z,98908.34
2023-04-27T18:42:34.569Z,98908.82
2023-04-27T18:45:02.171Z,98913.19
2023-04-27T18:47:29.930Z,98915.83
2023-04-27T18:49:57.517Z,98916.59
2023-04-27T18:52:25.223Z,98918.67
2023-04-27T18:54:52.911Z,98915.48
2023-04-27T18:57:20.568Z,98913.81
2023-04-27T18:59:48.305Z,98917.23
2023-04-27T19:02:16.029Z,98917.23
2023-04-27T19:04:52.758Z,98921.13
2023-04-27T19:07:29.574Z,98915.90
2023-04-27T19:09:57.317Z,98915.70
2023-04-27T19:12:25.178Z,98919.39
2023-04-27T19:14:52.803Z,98911.73
2023-04-27T19:17:20.607Z,98914.72
2023-04-27T19:19:48.409Z,98912.48
2023-04-27T19:22:16.143Z,98918.32
2023-04-27T19:24:43.865Z,98917.73
2023-04-27T19:27:11.631Z,98920.02
2023-04-27T19:29:53.472Z,98919.92
2023-04-27T19:32:22.205Z,98919.48
2023-04-27T19:34:49.947Z,98922.08
2023-04-27T19:37:17.585Z,98922.96
2023-04-27T19:39:45.355Z,98929.26
2023-04-27T19:42:13.054Z,98928.27
2023-04-27T19:44:41.170Z,98931.35
2023-04-27T19:47:08.823Z,98930.54
2023-04-27T19:49:37.403Z,98932.44
2023-04-27T19:52:05.026Z,98929.27
2023-04-27T19:54:32.739Z,98932.18
2023-04-27T19:57:00.501Z,98929.84
2023-04-27T19:59:28.205Z,98928.52
2023-04-27T20:01:55.834Z,98926.20
2023-04-27T20:04:23.902Z,98924.20
2023-04-27T20:06:51.764Z,98926.91
2023-04-27T20:09:19.407Z,98931.83
2023-04-27T20:11:47.059Z,98933.35
2023-04-27T20:14:14.950Z,98937.08
2023-04-27T20:16:42.850Z,98947.72
2023-04-27T20:19:10.511Z,98949.42
2023-04-27T20:21:38.431Z,98950.45
2023-04-27T20:24:06.350Z,98955.67
2023-04-27T20:26:33.917Z,98959.23
2023-04-27T20:29:01.546Z,98958.39
2023-04-27T20:31:29.194Z,98955.03
2023-04-27T20:33:56.791Z,98955.20
2023-04-27T20:36:24.486Z,98951.81
2023-04-27T20:38:52.196Z,98952.16
2023-04-27T20:41:19.836Z,98950.65
2023-04-27T20:43:47.391Z,98948.80
2023-04-27T20:46:15.145Z,98951.32
2023-04-27T20:48:42.766Z,98953.70
2023-04-27T20:51:10.386Z,98953.87
2023-04-27T20:53:38.963Z,98950.00
2023-04-27T20:56:06.943Z,98948.14
2023-04-27T20:58:34.614Z,98947.12
2023-04-27T21:01:02.217Z,98946.29
2023-04-27T21:03:29.950Z,98946.11
2023-04-27T21:05:57.662Z,98948.64
2023-04-27T21:08:25.249Z,98948.45
2023-04-27T21:10:52.835Z,98952.48
2023-04-27T21:13:20.422Z,98948.78
2023-04-27T21:15:48.107Z,98950.11
2023-04-27T21:18:29.050Z,98947.40
2023-04-27T21:20:58.082Z,98946.71
2023-04-27T21:23:25.717Z,98946.88
2023-04-27T21:25:53.391Z,98949.73
2023-04-27T21:28:20.988Z,98951.75
2023-04-27T21:30:48.587Z,98949.74
2023-04-27T21:33:16.350Z,98947.87
2023-04-27T21:35:43.972Z,98948.55
2023-04-27T21:38:11.512Z,98948.06
2023-04-27T21:40:39.124Z,98950.26
2023-04-27T21:43:06.702Z,98952.97
2023-04-27T21:45:34.258Z,98950.62
2023-04-27T21:48:01.898Z,98956.20
2023-04-27T21:50:29.487Z,98960.60
2023-04-27T21:52:57.140Z,98958.59
2023-04-27T21:55:24.706Z,98955.38
2023-04-27T21:57:52.318Z,98956.90
2023-04-27T22:00:20.054Z,98957.08
2023-04-27T22:02:47.873Z,98956.58
2023-04-27T22:05:15.620Z,98958.27
2023-04-27T22:07:45.436Z,98961.46
2023-04-27T22:10:13.601Z,98965.15
2023-04-27T22:12:41.279Z,98966.34
2023-04-27T22:15:09.113Z,98970.55
2023-04-27T22:17:36.768Z,98970.20
2023-04-27T22:20:04.818Z,98974.93
2023-04-27T22:22:32.389Z,98969.69
2023-04-27T22:25:00.048Z,98966.48
2023-04-27T22:27:35.328Z,98966.14
2023-04-27T22:30:10.225Z,98964.61
2023-04-27T22:32:37.877Z,98960.89
2023-04-27T22:35:10.587Z,98961.38
2023-04-27T22:37:40.706Z,98956.33
2023-04-27T22:40:08.925Z,98953.61
2023-04-27T22:42:36.654Z,98955.95
2023-04-27T22:45:04.733Z,98956.27
2023-04-27T22:47:32.370Z,98952.89
2023-04-27T22:49:59.934Z,98955.07
2023-04-27T22:52:27.570Z,98955.89
2023-04-27T22:54:55.122Z,98953.69
2023-04-27T22:57:22.676Z,98956.03
2023-04-27T22:59:50.252Z,98954.01
2023-04-27T23:02:17.967Z,98960.23
2023-04-27T23:04:45.696Z,98961.74
2023-04-27T23:07:13.417Z,98963.42
2023-04-27T23:09:41.064Z,98962.05
2023-04-27T23:12:08.624Z,98956.98
2023-04-27T23:14:36.839Z,98957.46
2023-04-27T23:17:04.515Z,98958.15
2023-04-27T23:19:32.172Z,98958.48
2023-04-27T23:22:02.798Z,98957.44
2023-04-27T23:24:30.455Z,98958.63
2023-04-27T23:26:58.050Z,98962.32
2023-04-27T23:29:25.607Z,98965.52
2023-04-27T23:31:53.177Z,98962.46
2023-04-27T23:34:20.744Z,98962.60
2023-04-27T23:36:48.424Z,98966.14
2023-04-27T23:39:15.971Z,98964.77
2023-04-27T23:41:43.545Z,98964.77
2023-04-27T23:44:11.115Z,98961.73
2023-04-27T23:46:38.688Z,98957.67
2023-04-27T23:49:06.381Z,98953.46
2023-04-27T23:51:33.918Z,98952.10
2023-04-27T23:54:01.508Z,98946.55
2023-04-27T23:56:29.063Z,98943.52
2023-04-27T23:58:56.634Z,98942.17
